sensor_id;sensor_type;location;lat;lon;timestamp;temperature;humidity
18365;DHT22;9309;52.126;11.616;2024-03-23T00:53:02;9.20;87.80
18365;DHT22;9309;52.126;11.616;2024-03-23T00:55:29;9.20;88.10
18365;DHT22;9309;52.126;11.616;2024-03-23T00:57:54;9.10;88.30
18365;DHT22;9309;52.126;11.616;2024-03-23T01:00:21;9.20;88.70
18365;DHT22;9309;52.126;11.616;2024-03-23T01:02:46;9.20;88.70
18365;DHT22;9309;52.126;11.616;2024-03-23T01:05:13;9.20;88.40
18365;DHT22;9309;52.126;11.616;2024-03-23T01:07:39;9.10;88.50
18365;DHT22;9309;52.126;11.616;2024-03-23T01:10:07;9.20;88.40
18365;DHT22;9309;52.126;11.616;2024-03-23T01:12:32;9.20;87.60
18365;DHT22;9309;52.126;11.616;2024-03-23T01:14:59;9.10;88.30
18365;DHT22;9309;52.126;11.616;2024-03-23T01:17:25;8.90;89.40
18365;DHT22;9309;52.126;11.616;2024-03-23T01:19:51;8.70;90.80
18365;DHT22;9309;52.126;11.616;2024-03-23T01:22:18;8.70;91.30
18365;DHT22;9309;52.126;11.616;2024-03-23T01:24:43;8.90;90.60
18365;DHT22;9309;52.126;11.616;2024-03-23T01:27:12;8.80;90.50
18365;DHT22;9309;52.126;11.616;2024-03-23T01:29:37;8.70;91.30
18365;DHT22;9309;52.126;11.616;2024-03-23T01:32:04;8.70;92.20
18365;DHT22;9309;52.126;11.616;2024-03-23T01:34:30;8.80;91.60
18365;DHT22;9309;52.126;11.616;2024-03-23T01:36:57;8.60;91.00
18365;DHT22;9309;52.126;11.616;2024-03-23T01:39:22;8.60;91.70
18365;DHT22;9309;52.126;11.616;2024-03-23T01:41:49;8.60;89.90
18365;DHT22;9309;52.126;11.616;2024-03-23T01:44:16;8.40;90.40
18365;DHT22;9309;52.126;11.616;2024-03-23T01:46:43;8.30;89.80
18365;DHT22;9309;52.126;11.616;2024-03-23T01:49:09;8.40;89.80
18365;DHT22;9309;52.126;11.616;2024-03-23T01:51:36;8.40;89.90
18365;DHT22;9309;52.126;11.616;2024-03-23T01:54:02;8.50;89.80
18365;DHT22;9309;52.126;11.616;2024-03-23T01:56:29;8.70;88.70
18365;DHT22;9309;52.126;11.616;2024-03-23T01:58:55;8.60;87.10
18365;DHT22;9309;52.126;11.616;2024-03-23T02:01:23;8.60;86.80
18365;DHT22;9309;52.126;11.616;2024-03-23T02:03:49;8.50;87.10
18365;DHT22;9309;52.126;11.616;2024-03-23T02:06:15;8.40;87.10
18365;DHT22;9309;52.126;11.616;2024-03-23T02:08:41;8.40;85.90
18365;DHT22;9309;52.126;11.616;2024-03-23T02:11:07;8.30;85.90
18365;DHT22;9309;52.126;11.616;2024-03-23T02:13:33;8.20;85.80
18365;DHT22;9309;52.126;11.616;2024-03-23T02:16:00;8.00;87.00
18365;DHT22;9309;52.126;11.616;2024-03-23T02:18:27;8.00;88.50
18365;DHT22;9309;52.126;11.616;2024-03-23T02:20:53;8.10;88.50
18365;DHT22;9309;52.126;11.616;2024-03-23T02:23:20;7.90;86.10
18365;DHT22;9309;52.126;11.616;2024-03-23T02:25:47;7.70;87.60
18365;DHT22;9309;52.126;11.616;2024-03-23T02:28:12;7.40;88.10
18365;DHT22;9309;52.126;11.616;2024-03-23T02:30:39;7.40;90.40
18365;DHT22;9309;52.126;11.616;2024-03-23T02:33:05;7.40;90.40
18365;DHT22;9309;52.126;11.616;2024-03-23T02:35:31;7.40;90.80
18365;DHT22;9309;52.126;11.616;2024-03-23T02:37:57;7.40;91.80
18365;DHT22;9309;52.126;11.616;2024-03-23T02:40:25;7.30;90.60
18365;DHT22;9309;52.126;11.616;2024-03-23T02:42:51;7.40;90.30
18365;DHT22;9309;52.126;11.616;2024-03-23T02:45:18;7.40;90.20
18365;DHT22;9309;52.126;11.616;2024-03-23T02:47:44;7.10;91.40
18365;DHT22;9309;52.126;11.616;2024-03-23T02:50:10;7.00;92.00
18365;DHT22;9309;52.126;11.616;2024-03-23T02:52:36;6.90;92.70
18365;DHT22;9309;52.126;11.616;2024-03-23T02:55:03;6.80;93.80
18365;DHT22;9309;52.126;11.616;2024-03-23T02:57:30;6.80;93.70
18365;DHT22;9309;52.126;11.616;2024-03-23T02:59:57;6.80;93.50
18365;DHT22;9309;52.126;11.616;2024-03-23T03:02:22;6.70;93.90
18365;DHT22;9309;52.126;11.616;2024-03-23T03:04:49;6.70;93.60
18365;DHT22;9309;52.126;11.616;2024-03-23T03:07:14;6.70;94.30
18365;DHT22;9309;52.126;11.616;2024-03-23T03:09:41;6.70;94.20
18365;DHT22;9309;52.126;11.616;2024-03-23T03:12:07;6.80;94.20
18365;DHT22;9309;52.126;11.616;2024-03-23T03:14:35;6.80;93.50
18365;DHT22;9309;52.126;11.616;2024-03-23T03:17:00;6.90;94.50
18365;DHT22;9309;52.126;11.616;2024-03-23T03:19:27;7.10;93.80
18365;DHT22;9309;52.126;11.616;2024-03-23T03:21:53;7.00;93.80
18365;DHT22;9309;52.126;11.616;2024-03-23T03:24:19;7.00;93.70
18365;DHT22;9309;52.126;11.616;2024-03-23T03:26:45;7.10;92.40
18365;DHT22;9309;52.126;11.616;2024-03-23T03:29:12;7.10;92.00
18365;DHT22;9309;52.126;11.616;2024-03-23T03:31:39;7.00;91.40
18365;DHT22;9309;52.126;11.616;2024-03-23T03:34:05;7.20;91.20
18365;DHT22;9309;52.126;11.616;2024-03-23T03:36:31;7.20;91.10
18365;DHT22;9309;52.126;11.616;2024-03-23T03:38:58;7.20;91.00
18365;DHT22;9309;52.126;11.616;2024-03-23T03:41:23;7.00;92.60
18365;DHT22;9309;52.126;11.616;2024-03-23T03:43:50;7.00;92.90
18365;DHT22;9309;52.126;11.616;2024-03-23T03:46:16;6.90;94.00
18365;DHT22;9309;52.126;11.616;2024-03-23T03:48:44;7.00;93.20
18365;DHT22;9309;52.126;11.616;2024-03-23T03:51:10;7.00;92.10
18365;DHT22;9309;52.126;11.616;2024-03-23T03:53:37;7.00;92.50
18365;DHT22;9309;52.126;11.616;2024-03-23T03:56:02;7.10;91.10
18365;DHT22;9309;52.126;11.616;2024-03-23T03:58:29;6.90;92.10
18365;DHT22;9309;52.126;11.616;2024-03-23T04:00:55;6.80;93.10
18365;DHT22;9309;52.126;11.616;2024-03-23T04:03:21;6.60;93.00
18365;DHT22;9309;52.126;11.616;2024-03-23T04:05:51;6.50;94.50
18365;DHT22;9309;52.126;11.616;2024-03-23T04:08:17;6.60;94.20
18365;DHT22;9309;52.126;11.616;2024-03-23T04:10:43;6.70;93.30
18365;DHT22;9309;52.126;11.616;2024-03-23T04:13:09;6.70;93.10
18365;DHT22;9309;52.126;11.616;2024-03-23T04:15:35;6.80;93.20
18365;DHT22;9309;52.126;11.616;2024-03-23T04:18:02;6.70;92.70
18365;DHT22;9309;52.126;11.616;2024-03-23T04:20:27;6.60;93.60
18365;DHT22;9309;52.126;11.616;2024-03-23T04:22:55;6.50;94.10
18365;DHT22;9309;52.126;11.616;2024-03-23T04:25:21;6.60;93.70
18365;DHT22;9309;52.126;11.616;2024-03-23T04:27:47;6.70;94.40
18365;DHT22;9309;52.126;11.616;2024-03-23T04:30:13;6.70;93.50
18365;DHT22;9309;52.126;11.616;2024-03-23T04:32:40;6.60;93.70
18365;DHT22;9309;52.126;11.616;2024-03-23T04:35:07;6.60;94.80
18365;DHT22;9309;52.126;11.616;2024-03-23T04:37:35;6.70;94.10
18365;DHT22;9309;52.126;11.616;2024-03-23T04:40:03;6.70;92.90
18365;DHT22;9309;52.126;11.616;2024-03-23T04:42:29;6.70;93.00
18365;DHT22;9309;52.126;11.616;2024-03-23T04:44:56;6.40;93.30
18365;DHT22;9309;52.126;11.616;2024-03-23T04:47:23;6.40;93.90
18365;DHT22;9309;52.126;11.616;2024-03-23T04:49:49;6.50;95.10
18365;DHT22;9309;52.126;11.616;2024-03-23T04:52:16;6.60;94.50
18365;DHT22;9309;52.126;11.616;2024-03-23T04:54:42;6.60;94.00
18365;DHT22;9309;52.126;11.616;2024-03-23T04:57:09;6.60;92.50
18365;DHT22;9309;52.126;11.616;2024-03-23T04:59:36;6.50;93.70
18365;DHT22;9309;52.126;11.616;2024-03-23T05:02:02;6.40;93.50
18365;DHT22;9309;52.126;11.616;2024-03-23T05:04:28;6.50;93.90
18365;DHT22;9309;52.126;11.616;2024-03-23T05:06:54;6.40;92.90
18365;DHT22;9309;52.126;11.616;2024-03-23T05:09:21;6.30;93.80
18365;DHT22;9309;52.126;11.616;2024-03-23T05:11:46;6.50;94.20
18365;DHT22;9309;52.126;11.616;2024-03-23T05:14:14;6.60;92.80
18365;DHT22;9309;52.126;11.616;2024-03-23T05:16:40;6.40;93.30
18365;DHT22;9309;52.126;11.616;2024-03-23T05:19:07;6.50;93.00
18365;DHT22;9309;52.126;11.616;2024-03-23T05:21:32;6.40;92.40
18365;DHT22;9309;52.126;11.616;2024-03-23T05:23:59;6.40;92.90
18365;DHT22;9309;52.126;11.616;2024-03-23T05:26:24;6.40;92.60
18365;DHT22;9309;52.126;11.616;2024-03-23T05:28:51;6.40;92.40
18365;DHT22;9309;52.126;11.616;2024-03-23T05:31:23;6.30;93.00
18365;DHT22;9309;52.126;11.616;2024-03-23T05:33:50;6.30;93.40
18365;DHT22;9309;52.126;11.616;2024-03-23T05:36:16;6.30;93.60
18365;DHT22;9309;52.126;11.616;2024-03-23T05:38:42;6.30;92.30
18365;DHT22;9309;52.126;11.616;2024-03-23T05:41:08;6.30;91.40
18365;DHT22;9309;52.126;11.616;2024-03-23T05:43:34;6.20;91.90
18365;DHT22;9309;52.126;11.616;2024-03-23T05:46:00;6.20;92.30
18365;DHT22;9309;52.126;11.616;2024-03-23T05:48:29;6.20;91.30
18365;DHT22;9309;52.126;11.616;2024-03-23T05:50:56;6.10;90.80
18365;DHT22;9309;52.126;11.616;2024-03-23T05:53:22;6.00;92.70
18365;DHT22;9309;52.126;11.616;2024-03-23T05:55:48;6.00;92.60
18365;DHT22;9309;52.126;11.616;2024-03-23T05:58:15;6.10;92.60
18365;DHT22;9309;52.126;11.616;2024-03-23T06:00:41;6.00;91.50
18365;DHT22;9309;52.126;11.616;2024-03-23T06:03:08;5.90;90.30
18365;DHT22;9309;52.126;11.616;2024-03-23T06:05:35;6.00;92.70
18365;DHT22;9309;52.126;11.616;2024-03-23T06:08:02;6.20;92.20
18365;DHT22;9309;52.126;11.616;2024-03-23T06:10:27;6.20;92.00
18365;DHT22;9309;52.126;11.616;2024-03-23T06:12:54;6.20;91.10
18365;DHT22;9309;52.126;11.616;2024-03-23T06:15:20;6.40;90.70
18365;DHT22;9309;52.126;11.616;2024-03-23T06:17:47;6.40;90.40
18365;DHT22;9309;52.126;11.616;2024-03-23T06:20:13;6.50;90.30
18365;DHT22;9309;52.126;11.616;2024-03-23T06:22:41;6.50;91.00
18365;DHT22;9309;52.126;11.616;2024-03-23T06:25:07;6.40;90.40
18365;DHT22;9309;52.126;11.616;2024-03-23T06:27:33;6.50;89.90
18365;DHT22;9309;52.126;11.616;2024-03-23T06:29:59;6.40;90.60
18365;DHT22;9309;52.126;11.616;2024-03-23T06:32:25;6.30;91.20
18365;DHT22;9309;52.126;11.616;2024-03-23T06:34:51;6.30;90.10
18365;DHT22;9309;52.126;11.616;2024-03-23T06:37:18;6.20;91.10
18365;DHT22;9309;52.126;11.616;2024-03-23T06:39:45;6.20;92.50
18365;DHT22;9309;52.126;11.616;2024-03-23T06:42:12;6.40;90.60
18365;DHT22;9309;52.126;11.616;2024-03-23T06:44:37;6.30;89.90
18365;DHT22;9309;52.126;11.616;2024-03-23T06:47:04;6.40;90.10
18365;DHT22;9309;52.126;11.616;2024-03-23T06:49:30;6.50;89.80
18365;DHT22;9309;52.126;11.616;2024-03-23T06:51:56;6.30;89.40
18365;DHT22;9309;52.126;11.616;2024-03-23T06:54:22;6.20;90.50
18365;DHT22;9309;52.126;11.616;2024-03-23T06:56:51;6.30;90.50
18365;DHT22;9309;52.126;11.616;2024-03-23T06:59:17;6.30;90.40
18365;DHT22;9309;52.126;11.616;2024-03-23T07:01:44;6.30;89.70
18365;DHT22;9309;52.126;11.616;2024-03-23T07:04:09;6.30;91.20
18365;DHT22;9309;52.126;11.616;2024-03-23T07:06:41;6.50;90.60
18365;DHT22;9309;52.126;11.616;2024-03-23T07:09:07;6.50;89.80
18365;DHT22;9309;52.126;11.616;2024-03-23T07:11:34;6.30;91.70
18365;DHT22;9309;52.126;11.616;2024-03-23T07:14:01;6.20;90.70
18365;DHT22;9309;52.126;11.616;2024-03-23T07:16:28;6.20;91.30
18365;DHT22;9309;52.126;11.616;2024-03-23T07:18:53;6.30;91.70
18365;DHT22;9309;52.126;11.616;2024-03-23T07:21:20;6.10;89.60
18365;DHT22;9309;52.126;11.616;2024-03-23T07:23:46;6.00;90.80
18365;DHT22;9309;52.126;11.616;2024-03-23T07:26:13;6.10;92.00
18365;DHT22;9309;52.126;11.616;2024-03-23T07:28:38;6.20;90.80
18365;DHT22;9309;52.126;11.616;2024-03-23T07:31:10;6.10;92.10
18365;DHT22;9309;52.126;11.616;2024-03-23T07:33:37;6.20;92.30
18365;DHT22;9309;52.126;11.616;2024-03-23T07:36:04;6.10;92.50
18365;DHT22;9309;52.126;11.616;2024-03-23T07:38:31;6.40;92.10
18365;DHT22;9309;52.126;11.616;2024-03-23T07:41:04;6.30;89.20
18365;DHT22;9309;52.126;11.616;2024-03-23T07:43:29;6.30;89.20
18365;DHT22;9309;52.126;11.616;2024-03-23T07:45:56;6.10;89.00
18365;DHT22;9309;52.126;11.616;2024-03-23T07:48:23;6.00;88.40
18365;DHT22;9309;52.126;11.616;2024-03-23T07:50:56;5.80;88.30
18365;DHT22;9309;52.126;11.616;2024-03-23T07:53:22;5.80;89.50
18365;DHT22;9309;52.126;11.616;2024-03-23T07:55:52;5.90;89.00
18365;DHT22;9309;52.126;11.616;2024-03-23T07:58:17;5.90;89.80
18365;DHT22;9309;52.126;11.616;2024-03-23T08:00:44;6.00;90.10
18365;DHT22;9309;52.126;11.616;2024-03-23T08:03:09;6.10;90.30
18365;DHT22;9309;52.126;11.616;2024-03-23T08:05:37;6.20;87.80
18365;DHT22;9309;52.126;11.616;2024-03-23T08:08:03;6.00;87.70
18365;DHT22;9309;52.126;11.616;2024-03-23T08:10:29;6.00;88.20
18365;DHT22;9309;52.126;11.616;2024-03-23T08:12:55;6.00;88.40
18365;DHT22;9309;52.126;11.616;2024-03-23T08:15:21;5.90;88.00
18365;DHT22;9309;52.126;11.616;2024-03-23T08:17:48;5.80;88.10
18365;DHT22;9309;52.126;11.616;2024-03-23T08:20:15;5.70;87.40
18365;DHT22;9309;52.126;11.616;2024-03-23T08:22:42;5.70;87.30
18365;DHT22;9309;52.126;11.616;2024-03-23T08:25:08;5.70;88.00
18365;DHT22;9309;52.126;11.616;2024-03-23T08:27:34;5.80;89.50
18365;DHT22;9309;52.126;11.616;2024-03-23T08:30:00;5.80;87.30
18365;DHT22;9309;52.126;11.616;2024-03-23T08:32:26;5.90;87.50
18365;DHT22;9309;52.126;11.616;2024-03-23T08:34:52;6.00;89.10
18365;DHT22;9309;52.126;11.616;2024-03-23T08:37:18;6.20;86.70
18365;DHT22;9309;52.126;11.616;2024-03-23T08:39:46;6.10;85.30
18365;DHT22;9309;52.126;11.616;2024-03-23T08:42:11;6.00;86.50
18365;DHT22;9309;52.126;11.616;2024-03-23T08:44:38;6.00;87.20
18365;DHT22;9309;52.126;11.616;2024-03-23T08:47:04;5.90;87.20
18365;DHT22;9309;52.126;11.616;2024-03-23T08:49:30;5.70;88.20
18365;DHT22;9309;52.126;11.616;2024-03-23T08:51:56;5.90;88.90
18365;DHT22;9309;52.126;11.616;2024-03-23T08:54:22;6.10;87.50
18365;DHT22;9309;52.126;11.616;2024-03-23T08:56:49;5.90;85.90
18365;DHT22;9309;52.126;11.616;2024-03-23T08:59:16;5.80;85.50
18365;DHT22;9309;52.126;11.616;2024-03-23T09:01:42;5.80;85.80
18365;DHT22;9309;52.126;11.616;2024-03-23T09:04:08;5.90;85.20
18365;DHT22;9309;52.126;11.616;2024-03-23T09:06:34;6.00;85.40
18365;DHT22;9309;52.126;11.616;2024-03-23T09:09:00;6.20;84.20
18365;DHT22;9309;52.126;11.616;2024-03-23T09:11:26;6.20;85.00
18365;DHT22;9309;52.126;11.616;2024-03-23T09:13:54;6.20;85.80
18365;DHT22;9309;52.126;11.616;2024-03-23T09:16:19;6.10;83.80
18365;DHT22;9309;52.126;11.616;2024-03-23T09:18:46;6.00;84.10
18365;DHT22;9309;52.126;11.616;2024-03-23T09:21:11;6.10;85.50
18365;DHT22;9309;52.126;11.616;2024-03-23T09:23:40;6.30;84.20
18365;DHT22;9309;52.126;11.616;2024-03-23T09:26:05;6.30;83.10
18365;DHT22;9309;52.126;11.616;2024-03-23T09:28:32;6.60;82.70
18365;DHT22;9309;52.126;11.616;2024-03-23T09:31:03;6.80;82.40
18365;DHT22;9309;52.126;11.616;2024-03-23T09:33:29;6.80;81.90
18365;DHT22;9309;52.126;11.616;2024-03-23T09:35:55;6.80;80.90
18365;DHT22;9309;52.126;11.616;2024-03-23T09:38:21;6.70;82.40
18365;DHT22;9309;52.126;11.616;2024-03-23T09:40:48;6.70;83.00
18365;DHT22;9309;52.126;11.616;2024-03-23T09:43:15;6.70;82.60
18365;DHT22;9309;52.126;11.616;2024-03-23T09:45:41;6.80;82.60
18365;DHT22;9309;52.126;11.616;2024-03-23T09:48:09;6.70;82.70
18365;DHT22;9309;52.126;11.616;2024-03-23T09:50:36;6.70;82.80
18365;DHT22;9309;52.126;11.616;2024-03-23T09:53:02;6.80;82.20
18365;DHT22;9309;52.126;11.616;2024-03-23T09:55:28;6.80;81.20
18365;DHT22;9309;52.126;11.616;2024-03-23T09:57:54;6.90;81.60
18365;DHT22;9309;52.126;11.616;2024-03-23T10:00:20;7.00;80.90
18365;DHT22;9309;52.126;11.616;2024-03-23T10:02:46;7.00;80.80
18365;DHT22;9309;52.126;11.616;2024-03-23T10:05:25;7.10;79.50
18365;DHT22;9309;52.126;11.616;2024-03-23T10:07:53;7.10;79.20
18365;DHT22;9309;52.126;11.616;2024-03-23T10:10:19;7.30;78.90
18365;DHT22;9309;52.126;11.616;2024-03-23T10:12:47;7.70;77.90
18365;DHT22;9309;52.126;11.616;2024-03-23T10:15:18;7.80;75.70
18365;DHT22;9309;52.126;11.616;2024-03-23T10:17:43;7.60;76.50
18365;DHT22;9309;52.126;11.616;2024-03-23T10:20:10;7.50;77.60
18365;DHT22;9309;52.126;11.616;2024-03-23T10:22:38;7.60;77.50
18365;DHT22;9309;52.126;11.616;2024-03-23T10:25:07;7.40;78.10
18365;DHT22;9309;52.126;11.616;2024-03-23T10:27:33;7.50;78.80
18365;DHT22;9309;52.126;11.616;2024-03-23T10:30:07;7.50;79.10
18365;DHT22;9309;52.126;11.616;2024-03-23T10:32:33;7.70;78.80
18365;DHT22;9309;52.126;11.616;2024-03-23T10:35:13;7.70;78.00
18365;DHT22;9309;52.126;11.616;2024-03-23T10:37:40;7.60;78.40
18365;DHT22;9309;52.126;11.616;2024-03-23T10:40:07;7.50;78.70
18365;DHT22;9309;52.126;11.616;2024-03-23T10:42:34;7.50;79.80
18365;DHT22;9309;52.126;11.616;2024-03-23T10:45:01;7.50;78.60
18365;DHT22;9309;52.126;11.616;2024-03-23T10:47:29;7.70;77.10
18365;DHT22;9309;52.126;11.616;2024-03-23T10:49:55;7.90;77.20
18365;DHT22;9309;52.126;11.616;2024-03-23T10:52:21;8.10;77.10
18365;DHT22;9309;52.126;11.616;2024-03-23T10:54:49;8.30;76.60
18365;DHT22;9309;52.126;11.616;2024-03-23T10:57:17;8.40;75.90
18365;DHT22;9309;52.126;11.616;2024-03-23T10:59:44;8.20;77.00
18365;DHT22;9309;52.126;11.616;2024-03-23T11:02:18;8.00;75.40
18365;DHT22;9309;52.126;11.616;2024-03-23T11:04:45;7.40;76.70
18365;DHT22;9309;52.126;11.616;2024-03-23T11:07:29;7.00;78.80
18365;DHT22;9309;52.126;11.616;2024-03-23T11:09:58;6.70;79.20
18365;DHT22;9309;52.126;11.616;2024-03-23T11:12:27;6.30;81.00
18365;DHT22;9309;52.126;11.616;2024-03-23T11:14:57;6.00;83.00
18365;DHT22;9309;52.126;11.616;2024-03-23T11:17:24;5.50;83.60
18365;DHT22;9309;52.126;11.616;2024-03-23T11:19:54;5.20;87.20
18365;DHT22;9309;52.126;11.616;2024-03-23T11:22:43;5.20;85.90
18365;DHT22;9309;52.126;11.616;2024-03-23T11:25:19;5.20;86.20
18365;DHT22;9309;52.126;11.616;2024-03-23T11:27:46;5.20;84.60
18365;DHT22;9309;52.126;11.616;2024-03-23T11:30:14;5.30;86.40
18365;DHT22;9309;52.126;11.616;2024-03-23T11:32:39;5.60;85.80
18365;DHT22;9309;52.126;11.616;2024-03-23T11:35:06;6.40;83.90
18365;DHT22;9309;52.126;11.616;2024-03-23T11:37:32;7.40;79.70
18365;DHT22;9309;52.126;11.616;2024-03-23T11:39:58;8.40;76.20
18365;DHT22;9309;52.126;11.616;2024-03-23T11:42:25;9.90;73.70
18365;DHT22;9309;52.126;11.616;2024-03-23T11:44:52;11.50;63.90
18365;DHT22;9309;52.126;11.616;2024-03-23T11:47:17;13.40;60.10
18365;DHT22;9309;52.126;11.616;2024-03-23T11:49:48;14.80;54.30
18365;DHT22;9309;52.126;11.616;2024-03-23T11:52:14;15.70;51.60
18365;DHT22;9309;52.126;11.616;2024-03-23T11:54:42;15.80;51.00
18365;DHT22;9309;52.126;11.616;2024-03-23T11:57:08;14.70;52.90
18365;DHT22;9309;52.126;11.616;2024-03-23T11:59:36;13.20;56.20
18365;DHT22;9309;52.126;11.616;2024-03-23T12:02:05;11.80;60.90
18365;DHT22;9309;52.126;11.616;2024-03-23T12:04:32;10.30;64.60
18365;DHT22;9309;52.126;11.616;2024-03-23T12:07:14;9.00;71.10
18365;DHT22;9309;52.126;11.616;2024-03-23T12:09:41;8.20;72.10
18365;DHT22;9309;52.126;11.616;2024-03-23T12:12:10;8.40;73.80
18365;DHT22;9309;52.126;11.616;2024-03-23T12:14:38;10.40;67.80
18365;DHT22;9309;52.126;11.616;2024-03-23T12:17:07;11.50;62.50
18365;DHT22;9309;52.126;11.616;2024-03-23T12:19:34;11.60;61.90
18365;DHT22;9309;52.126;11.616;2024-03-23T12:21:59;11.10;63.20
18365;DHT22;9309;52.126;11.616;2024-03-23T12:24:26;10.50;64.00
18365;DHT22;9309;52.126;11.616;2024-03-23T12:26:53;9.70;65.60
18365;DHT22;9309;52.126;11.616;2024-03-23T12:29:18;9.10;66.70
18365;DHT22;9309;52.126;11.616;2024-03-23T12:31:46;8.70;68.40
18365;DHT22;9309;52.126;11.616;2024-03-23T12:34:12;8.40;69.70
18365;DHT22;9309;52.126;11.616;2024-03-23T12:36:39;8.10;71.70
18365;DHT22;9309;52.126;11.616;2024-03-23T12:39:04;8.00;72.90
18365;DHT22;9309;52.126;11.616;2024-03-23T12:41:31;8.40;71.50
18365;DHT22;9309;52.126;11.616;2024-03-23T12:43:56;11.10;63.20
18365;DHT22;9309;52.126;11.616;2024-03-23T12:46:23;14.40;53.40
18365;DHT22;9309;52.126;11.616;2024-03-23T12:48:50;16.70;49.00
18365;DHT22;9309;52.126;11.616;2024-03-23T12:51:16;19.70;43.40
18365;DHT22;9309;52.126;11.616;2024-03-23T12:53:42;18.70;39.70
18365;DHT22;9309;52.126;11.616;2024-03-23T12:56:11;17.90;41.70
18365;DHT22;9309;52.126;11.616;2024-03-23T12:58:37;19.40;40.80
18365;DHT22;9309;52.126;11.616;2024-03-23T13:01:03;19.30;39.90
18365;DHT22;9309;52.126;11.616;2024-03-23T13:03:29;17.80;41.40
18365;DHT22;9309;52.126;11.616;2024-03-23T13:05:56;15.80;45.90
18365;DHT22;9309;52.126;11.616;2024-03-23T13:08:22;13.80;49.80
18365;DHT22;9309;52.126;11.616;2024-03-23T13:10:51;11.80;54.70
18365;DHT22;9309;52.126;11.616;2024-03-23T13:13:16;10.50;59.60
18365;DHT22;9309;52.126;11.616;2024-03-23T13:15:49;9.90;60.80
18365;DHT22;9309;52.126;11.616;2024-03-23T13:18:15;9.70;63.10
18365;DHT22;9309;52.126;11.616;2024-03-23T13:20:41;9.40;61.70
18365;DHT22;9309;52.126;11.616;2024-03-23T13:23:08;9.10;62.40
18365;DHT22;9309;52.126;11.616;2024-03-23T13:25:35;8.70;64.60
18365;DHT22;9309;52.126;11.616;2024-03-23T13:28:01;8.20;67.20
18365;DHT22;9309;52.126;11.616;2024-03-23T13:30:27;8.10;68.70
18365;DHT22;9309;52.126;11.616;2024-03-23T13:32:54;8.20;68.40
18365;DHT22;9309;52.126;11.616;2024-03-23T13:35:19;8.10;67.90
18365;DHT22;9309;52.126;11.616;2024-03-23T13:37:46;7.80;69.00
18365;DHT22;9309;52.126;11.616;2024-03-23T13:40:13;7.60;68.60
18365;DHT22;9309;52.126;11.616;2024-03-23T13:42:40;7.40;70.00
18365;DHT22;9309;52.126;11.616;2024-03-23T13:45:06;7.30;72.10
18365;DHT22;9309;52.126;11.616;2024-03-23T13:47:32;7.30;69.50
18365;DHT22;9309;52.126;11.616;2024-03-23T13:49:58;7.40;70.10
18365;DHT22;9309;52.126;11.616;2024-03-23T13:52:24;7.40;70.60
18365;DHT22;9309;52.126;11.616;2024-03-23T13:54:51;7.20;72.80
18365;DHT22;9309;52.126;11.616;2024-03-23T13:57:19;7.00;73.20
18365;DHT22;9309;52.126;11.616;2024-03-23T13:59:46;7.20;73.80
18365;DHT22;9309;52.126;11.616;2024-03-23T14:02:14;7.10;72.00
18365;DHT22;9309;52.126;11.616;2024-03-23T14:04:40;7.00;71.30
18365;DHT22;9309;52.126;11.616;2024-03-23T14:07:06;7.30;73.10
18365;DHT22;9309;52.126;11.616;2024-03-23T14:09:32;9.70;67.40
18365;DHT22;9309;52.126;11.616;2024-03-23T14:11:59;13.00;56.50
18365;DHT22;9309;52.126;11.616;2024-03-23T14:14:26;14.70;50.90
18365;DHT22;9309;52.126;11.616;2024-03-23T14:16:53;14.20;49.60
18365;DHT22;9309;52.126;11.616;2024-03-23T14:19:19;12.70;51.90
18365;DHT22;9309;52.126;11.616;2024-03-23T14:21:45;11.50;54.80
18365;DHT22;9309;52.126;11.616;2024-03-23T14:24:11;10.90;56.50
18365;DHT22;9309;52.126;11.616;2024-03-23T14:26:38;10.00;58.80
18365;DHT22;9309;52.126;11.616;2024-03-23T14:29:04;9.50;60.10
18365;DHT22;9309;52.126;11.616;2024-03-23T14:31:31;9.20;62.20
18365;DHT22;9309;52.126;11.616;2024-03-23T14:33:57;8.70;64.40
18365;DHT22;9309;52.126;11.616;2024-03-23T14:36:24;8.20;66.90
18365;DHT22;9309;52.126;11.616;2024-03-23T14:38:51;7.70;70.90
18365;DHT22;9309;52.126;11.616;2024-03-23T14:41:18;6.90;74.00
18365;DHT22;9309;52.126;11.616;2024-03-23T14:43:44;6.50;75.40
18365;DHT22;9309;52.126;11.616;2024-03-23T14:46:12;6.10;78.00
18365;DHT22;9309;52.126;11.616;2024-03-23T14:48:40;5.90;79.30
18365;DHT22;9309;52.126;11.616;2024-03-23T14:51:08;5.80;81.20
18365;DHT22;9309;52.126;11.616;2024-03-23T14:53:35;5.70;82.10
18365;DHT22;9309;52.126;11.616;2024-03-23T14:56:02;5.60;83.30
18365;DHT22;9309;52.126;11.616;2024-03-23T14:58:29;5.40;84.30
18365;DHT22;9309;52.126;11.616;2024-03-23T15:01:00;5.30;85.70
18365;DHT22;9309;52.126;11.616;2024-03-23T15:03:26;5.20;86.00
18365;DHT22;9309;52.126;11.616;2024-03-23T15:05:55;5.30;85.70
18365;DHT22;9309;52.126;11.616;2024-03-23T15:08:21;5.40;86.00
18365;DHT22;9309;52.126;11.616;2024-03-23T15:10:48;5.70;85.50
18365;DHT22;9309;52.126;11.616;2024-03-23T15:13:14;6.00;86.00
18365;DHT22;9309;52.126;11.616;2024-03-23T15:15:41;6.40;82.90
18365;DHT22;9309;52.126;11.616;2024-03-23T15:18:09;6.70;81.80
18365;DHT22;9309;52.126;11.616;2024-03-23T15:20:36;6.70;80.30
18365;DHT22;9309;52.126;11.616;2024-03-23T15:23:03;6.80;80.50
18365;DHT22;9309;52.126;11.616;2024-03-23T15:25:30;6.70;80.80
18365;DHT22;9309;52.126;11.616;2024-03-23T15:27:56;7.30;78.60
18365;DHT22;9309;52.126;11.616;2024-03-23T15:30:23;7.90;75.90
18365;DHT22;9309;52.126;11.616;2024-03-23T15:32:48;8.40;73.60
18365;DHT22;9309;52.126;11.616;2024-03-23T15:35:15;8.60;72.60
18365;DHT22;9309;52.126;11.616;2024-03-23T15:37:40;8.60;71.80
18365;DHT22;9309;52.126;11.616;2024-03-23T15:40:09;8.60;73.20
18365;DHT22;9309;52.126;11.616;2024-03-23T15:42:35;8.40;71.70
18365;DHT22;9309;52.126;11.616;2024-03-23T15:45:02;8.10;73.00
18365;DHT22;9309;52.126;11.616;2024-03-23T15:47:29;7.70;74.80
18365;DHT22;9309;52.126;11.616;2024-03-23T15:49:55;7.40;75.90
18365;DHT22;9309;52.126;11.616;2024-03-23T15:52:21;7.50;76.70
18365;DHT22;9309;52.126;11.616;2024-03-23T15:54:48;7.10;77.70
18365;DHT22;9309;52.126;11.616;2024-03-23T15:57:15;6.80;78.10
18365;DHT22;9309;52.126;11.616;2024-03-23T15:59:41;6.60;79.10
18365;DHT22;9309;52.126;11.616;2024-03-23T16:02:07;6.60;79.30
18365;DHT22;9309;52.126;11.616;2024-03-23T16:04:33;6.50;78.60
18365;DHT22;9309;52.126;11.616;2024-03-23T16:06:59;6.50;79.20
18365;DHT22;9309;52.126;11.616;2024-03-23T16:09:26;6.60;78.80
18365;DHT22;9309;52.126;11.616;2024-03-23T16:11:51;6.70;77.70
18365;DHT22;9309;52.126;11.616;2024-03-23T16:14:19;6.90;76.90
18365;DHT22;9309;52.126;11.616;2024-03-23T16:16:45;6.90;75.90
18365;DHT22;9309;52.126;11.616;2024-03-23T16:19:12;7.10;77.20
18365;DHT22;9309;52.126;11.616;2024-03-23T16:21:38;7.20;76.10
18365;DHT22;9309;52.126;11.616;2024-03-23T16:24:06;7.20;76.10
18365;DHT22;9309;52.126;11.616;2024-03-23T16:26:33;7.20;74.80
18365;DHT22;9309;52.126;11.616;2024-03-23T16:28:59;7.30;74.00
18365;DHT22;9309;52.126;11.616;2024-03-23T16:31:26;7.50;71.90
18365;DHT22;9309;52.126;11.616;2024-03-23T16:33:53;7.30;72.00